createdAt,value
2022-08-16T00:00:20.149Z,7.10
2022-08-16T00:02:50.161Z,7.93
2022-08-16T00:05:20.257Z,8.35
2022-08-16T00:07:47.516Z,7.45
2022-08-16T00:10:21.077Z,7.53
2022-08-16T00:12:50.001Z,7.60
2022-08-16T00:15:24.013Z,7.95
2022-08-16T00:17:56.896Z,7.63
2022-08-16T00:20:25.066Z,7.97
2022-08-16T00:22:52.749Z,7.93
2022-08-16T00:26:36.037Z,8.07
2022-08-16T00:28:11.908Z,7.47
2022-08-16T00:30:39.538Z,8.15
2022-08-16T00:33:07.281Z,7.93
2022-08-16T00:35:37.271Z,7.75
2022-08-16T00:38:40.224Z,8.10
2022-08-16T00:40:54.568Z,8.18
2022-08-16T00:43:25.279Z,7.75
2022-08-16T00:46:32.858Z,7.90
2022-08-16T00:49:01.501Z,7.45
2022-08-16T00:51:29.768Z,7.78
2022-08-16T00:53:59.904Z,7.68
2022-08-16T00:56:57.076Z,7.53
2022-08-16T00:59:21.113Z,7.68
2022-08-16T01:01:51.710Z,8.10
2022-08-16T01:04:29.724Z,7.30
2022-08-16T01:07:02.866Z,7.43
2022-08-16T01:09:33.573Z,7.65
2022-08-16T01:12:01.918Z,7.95
2022-08-16T01:14:34.135Z,7.50
2022-08-16T01:17:03.162Z,8.27
2022-08-16T01:19:44.216Z,7.85
2022-08-16T01:22:58.860Z,7.82
2022-08-16T01:25:34.364Z,7.88
2022-08-16T01:28:08.273Z,8.00
2022-08-16T01:30:49.870Z,8.40
2022-08-16T01:33:19.661Z,8.35
2022-08-16T01:36:01.257Z,8.52
2022-08-16T01:38:32.503Z,7.95
2022-08-16T01:41:29.597Z,7.68
2022-08-16T01:44:01.086Z,8.15
2022-08-16T01:46:45.356Z,8.30
2022-08-16T01:49:14.659Z,7.28
2022-08-16T01:51:44.658Z,7.90
2022-08-16T01:54:13.379Z,8.52
2022-08-16T01:56:42.748Z,7.85
2022-08-16T01:59:16.979Z,8.10
2022-08-16T02:01:49.802Z,8.27
2022-08-16T02:04:48.090Z,7.88
2022-08-16T02:07:25.467Z,7.82
2022-08-16T02:09:58.612Z,7.90
2022-08-16T02:12:51.585Z,8.25
2022-08-16T02:15:25.042Z,8.13
2022-08-16T02:17:54.002Z,8.10
2022-08-16T02:20:26.153Z,8.40
2022-08-16T02:22:58.898Z,8.27
2022-08-16T02:25:51.747Z,8.30
2022-08-16T02:28:17.268Z,7.75
2022-08-16T02:30:50.583Z,8.05
2022-08-16T02:33:19.922Z,8.05
2022-08-16T02:35:55.450Z,7.88
2022-08-16T02:38:27.288Z,8.77
2022-08-16T02:40:55.498Z,8.07
2022-08-16T02:43:28.076Z,8.05
2022-08-16T02:45:59.074Z,7.85
2022-08-16T02:48:30.827Z,8.13
2022-08-16T02:51:06.636Z,7.63
2022-08-16T02:53:52.367Z,8.27
2022-08-16T02:56:20.385Z,8.27
2022-08-16T02:58:50.214Z,8.45
2022-08-16T03:01:24.973Z,8.23
2022-08-16T03:04:29.668Z,8.20
2022-08-16T03:06:56.631Z,7.78
2022-08-16T03:09:25.205Z,8.25
2022-08-16T03:11:56.175Z,8.23
2022-08-16T03:14:24.605Z,8.05
2022-08-16T03:16:59.117Z,8.20
2022-08-16T03:22:19.447Z,8.38
2022-08-16T03:24:57.647Z,8.23
2022-08-16T03:27:25.308Z,8.05
2022-08-16T03:30:00.197Z,8.48
2022-08-16T03:32:27.185Z,8.40
2022-08-16T03:34:54.407Z,7.50
2022-08-16T03:37:21.446Z,7.88
2022-08-16T03:39:48.426Z,8.10
2022-08-16T03:42:23.587Z,8.45
2022-08-16T03:44:50.597Z,8.35
2022-08-16T03:47:19.814Z,8.15
2022-08-16T03:49:52.291Z,8.85
2022-08-16T03:52:23.931Z,7.88
2022-08-16T03:54:59.495Z,8.50
2022-08-16T03:57:32.006Z,8.38
2022-08-16T04:00:20.663Z,8.77
2022-08-16T04:03:08.783Z,7.93
2022-08-16T04:05:47.473Z,8.20
2022-08-16T04:08:23.037Z,7.60
2022-08-16T04:10:52.873Z,8.18
2022-08-16T04:14:01.515Z,8.10
2022-08-16T04:16:08.470Z,7.57
2022-08-16T04:18:39.031Z,8.40
2022-08-16T04:21:13.183Z,7.97
2022-08-16T04:23:56.636Z,8.20
2022-08-16T04:26:23.695Z,8.88
2022-08-16T04:28:53.559Z,8.93
2022-08-16T04:31:24.806Z,8.23
2022-08-16T04:33:53.271Z,8.27
2022-08-16T04:36:20.894Z,7.80
2022-08-16T04:38:50.079Z,8.57
2022-08-16T04:41:19.455Z,7.90
2022-08-16T04:44:00.707Z,8.07
2022-08-16T04:47:00.336Z,8.55
2022-08-16T04:49:15.106Z,8.00
2022-08-16T04:51:42.147Z,8.40
2022-08-16T04:54:10.483Z,8.55
2022-08-16T04:56:42.821Z,8.18
2022-08-16T04:59:13.332Z,7.80
2022-08-16T05:01:57.810Z,8.43
2022-08-16T05:04:26.265Z,8.02
2022-08-16T05:06:57.645Z,8.18
2022-08-16T05:09:24.586Z,7.95
2022-08-16T05:11:51.744Z,8.18
2022-08-16T05:14:20.307Z,8.40
2022-08-16T05:17:06.152Z,8.15
2022-08-16T05:19:35.958Z,7.53
2022-08-16T05:22:03.748Z,8.38
2022-08-16T05:24:31.795Z,9.00
2022-08-16T05:26:58.792Z,8.10
2022-08-16T05:29:56.849Z,8.27
2022-08-16T05:32:33.829Z,8.73
2022-08-16T05:34:59.768Z,8.50
2022-08-16T05:37:26.911Z,8.30
2022-08-16T05:40:16.246Z,8.77
2022-08-16T05:42:45.998Z,8.77
2022-08-16T05:45:13.550Z,8.45
2022-08-16T05:47:48.999Z,7.88
2022-08-16T05:50:28.214Z,8.05
2022-08-16T05:53:01.644Z,7.85
2022-08-16T05:55:28.638Z,8.07
2022-08-16T05:57:57.123Z,8.10
2022-08-16T06:00:25.314Z,8.48
2022-08-16T06:02:52.901Z,8.68
2022-08-16T06:05:21.242Z,8.32
2022-08-16T06:07:59.063Z,8.10
2022-08-16T06:10:33.293Z,8.13
2022-08-16T06:13:00.903Z,7.85
2022-08-16T06:15:28.333Z,7.60
2022-08-16T06:18:00.602Z,7.57
2022-08-16T06:20:35.839Z,8.23
2022-08-16T06:23:16.845Z,7.97
2022-08-16T06:25:52.870Z,7.80
2022-08-16T06:28:34.846Z,7.70
2022-08-16T06:31:04.813Z,7.70
2022-08-16T06:33:41.770Z,8.65
2022-08-16T06:36:13.913Z,7.32
2022-08-16T06:38:55.818Z,8.10
2022-08-16T06:41:24.345Z,7.30
2022-08-16T06:43:55.077Z,7.60
2022-08-16T06:46:32.043Z,8.15
2022-08-16T06:49:00.644Z,7.35
2022-08-16T06:51:46.406Z,7.80
2022-08-16T06:54:16.373Z,7.85
2022-08-16T06:56:43.592Z,8.30
2022-08-16T06:59:10.873Z,8.32
2022-08-16T07:01:45.152Z,8.15
2022-08-16T07:04:33.107Z,8.05
2022-08-16T07:07:03.465Z,7.80
2022-08-16T07:09:30.741Z,7.63
2022-08-16T07:12:03.697Z,8.07
2022-08-16T07:14:33.207Z,7.30
2022-08-16T07:17:00.611Z,7.40
2022-08-16T07:19:33.699Z,8.15
2022-08-16T07:22:38.359Z,7.32
2022-08-16T07:25:14.262Z,7.00
2022-08-16T07:27:43.217Z,7.43
2022-08-16T07:30:45.139Z,7.50
2022-08-16T07:33:02.353Z,6.70
2022-08-16T07:35:29.723Z,7.20
2022-08-16T07:37:56.663Z,7.18
2022-08-16T07:40:37.226Z,6.68
2022-08-16T07:43:11.129Z,6.95
2022-08-16T07:45:38.634Z,6.43
2022-08-16T07:48:13.022Z,7.10
2022-08-16T07:50:55.545Z,7.30
2022-08-16T07:53:28.901Z,7.13
2022-08-16T07:55:56.871Z,7.00
2022-08-16T07:58:35.070Z,6.70
2022-08-16T08:01:10.729Z,6.60
2022-08-16T08:03:47.648Z,6.75
2022-08-16T08:06:24.709Z,6.60
2022-08-16T08:08:59.066Z,6.68
2022-08-16T08:11:28.560Z,7.07
2022-08-16T08:14:03.311Z,6.70
2022-08-16T08:16:32.516Z,5.88
2022-08-16T08:19:02.384Z,5.88
2022-08-16T08:22:01.068Z,5.75
2022-08-16T08:24:20.505Z,6.15
2022-08-16T08:26:49.881Z,6.10
2022-08-16T08:29:23.148Z,5.53
2022-08-16T08:31:53.727Z,6.10
2022-08-16T08:34:23.287Z,5.25
2022-08-16T08:36:54.370Z,5.85
2022-08-16T08:39:26.611Z,5.60
2022-08-16T08:42:00.034Z,5.45
2022-08-16T08:44:32.307Z,5.28
2022-08-16T08:47:10.973Z,6.07
2022-08-16T08:49:55.616Z,5.55
2022-08-16T08:52:34.754Z,5.13
2022-08-16T08:55:10.732Z,5.05
2022-08-16T08:57:47.118Z,5.40
2022-08-16T09:00:21.524Z,6.10
2022-08-16T09:02:54.687Z,5.43
2022-08-16T09:05:35.915Z,5.28
2022-08-16T09:08:09.067Z,4.97
2022-08-16T09:10:39.583Z,5.13
2022-08-16T09:13:08.678Z,5.35
2022-08-16T09:15:38.637Z,4.80
2022-08-16T09:18:26.459Z,4.60
2022-08-16T09:21:01.881Z,4.88
2022-08-16T09:23:40.552Z,5.07
2022-08-16T09:26:44.594Z,4.82
2022-08-16T09:29:15.290Z,5.13
2022-08-16T09:31:44.922Z,4.65
2022-08-16T09:34:18.662Z,5.00
2022-08-16T09:36:46.598Z,5.10
2022-08-16T09:39:16.259Z,5.55
2022-08-16T09:41:53.766Z,5.40
2022-08-16T09:45:12.276Z,5.50
2022-08-16T09:47:12.555Z,5.40
2022-08-16T09:49:41.073Z,5.80
2022-08-16T09:52:09.982Z,5.88
2022-08-16T09:54:38.119Z,5.93
2022-08-16T09:57:05.742Z,5.65
2022-08-16T09:59:38.715Z,5.50
2022-08-16T10:02:26.426Z,5.68
2022-08-16T10:04:57.295Z,6.03
2022-08-16T10:07:44.717Z,6.13
2022-08-16T10:10:18.880Z,6.18
2022-08-16T10:13:12.565Z,6.50
2022-08-16T10:15:43.649Z,6.13
2022-08-16T10:18:41.257Z,6.80
2022-08-16T10:21:09.582Z,6.65
2022-08-16T10:23:36.813Z,6.07
2022-08-16T10:27:17.437Z,6.57
2022-08-16T10:28:52.642Z,6.00
2022-08-16T10:31:45.494Z,6.63
2022-08-16T10:34:30.874Z,6.53
2022-08-16T10:36:54.455Z,6.72
2022-08-16T10:44:53.454Z,6.53
2022-08-16T10:47:22.445Z,6.57
2022-08-16T10:49:50.217Z,7.32
2022-08-16T10:52:20.005Z,7.05
2022-08-16T10:57:36.959Z,6.72
2022-08-16T11:00:21.342Z,6.97
2022-08-16T11:03:00.236Z,6.55
2022-08-16T11:08:31.329Z,6.80
2022-08-16T11:11:06.767Z,6.53
2022-08-16T11:17:02.289Z,6.45
2022-08-16T11:19:15.795Z,6.82
2022-08-16T11:24:42.759Z,6.07
2022-08-16T11:27:20.525Z,6.65
2022-08-16T11:29:52.149Z,6.43
2022-08-16T11:32:28.383Z,6.07
2022-08-16T11:35:11.031Z,7.00
2022-08-16T11:40:37.943Z,6.65
2022-08-16T11:43:06.696Z,6.50
2022-08-16T11:45:37.257Z,6.43
2022-08-16T11:48:05.461Z,7.20
2022-08-16T11:50:33.942Z,7.15
2022-08-16T11:53:03.754Z,6.57
2022-08-16T11:55:34.788Z,6.95
2022-08-16T11:58:08.565Z,6.27
2022-08-16T12:00:51.364Z,6.53
2022-08-16T12:03:25.042Z,6.57
2022-08-16T12:06:25.257Z,6.80
2022-08-16T12:09:00.826Z,6.28
2022-08-16T12:11:31.710Z,6.53
2022-08-16T12:14:04.673Z,6.30
2022-08-16T12:16:34.357Z,6.18
2022-08-16T12:19:10.363Z,6.30
2022-08-16T12:21:58.031Z,7.07
2022-08-16T12:24:29.451Z,6.68
2022-08-16T12:26:57.054Z,6.40
2022-08-16T12:29:29.405Z,6.70
2022-08-16T12:32:00.963Z,6.57
2022-08-16T12:34:50.887Z,6.68
2022-08-16T12:37:21.280Z,6.20
2022-08-16T12:39:56.850Z,6.32
2022-08-16T12:42:35.224Z,6.60
2022-08-16T12:45:09.543Z,6.65
2022-08-16T12:48:10.004Z,6.47
2022-08-16T12:50:35.487Z,6.50
2022-08-16T12:53:04.083Z,6.72
2022-08-16T12:55:33.592Z,6.53
2022-08-16T12:58:01.291Z,6.72
2022-08-16T13:00:33.617Z,6.10
2022-08-16T13:03:03.272Z,6.65
2022-08-16T13:07:59.072Z,6.10
2022-08-16T13:10:37.987Z,6.32
2022-08-16T13:29:40.184Z,6.65
2022-08-16T13:32:40.483Z,7.00
2022-08-16T13:34:59.055Z,7.00
2022-08-16T13:37:28.237Z,6.22
2022-08-16T13:42:32.057Z,6.65
2022-08-16T13:44:59.965Z,6.30
2022-08-16T13:47:30.348Z,6.65
2022-08-16T13:49:57.468Z,6.03
2022-08-16T13:52:25.448Z,6.30
2022-08-16T13:55:01.739Z,6.20
2022-08-16T13:57:53.037Z,6.40
2022-08-16T14:00:19.459Z,6.40
2022-08-16T14:02:48.604Z,6.68
2022-08-16T14:05:20.075Z,6.03
2022-08-16T14:07:52.555Z,6.15
2022-08-16T14:10:20.200Z,6.55
2022-08-16T14:12:48.380Z,5.47
2022-08-16T14:15:16.219Z,6.22
2022-08-16T14:18:23.254Z,5.88
2022-08-16T14:20:30.980Z,6.18
2022-08-16T14:22:58.392Z,5.88
2022-08-16T14:25:27.034Z,6.35
2022-08-16T14:27:55.018Z,5.93
2022-08-16T14:30:23.526Z,6.00
2022-08-16T14:32:51.771Z,5.93
2022-08-16T14:35:36.888Z,6.00
2022-08-16T14:38:18.578Z,5.63
2022-08-16T14:40:52.730Z,5.82
2022-08-16T14:43:23.912Z,6.03
2022-08-16T14:45:51.218Z,6.05
2022-08-16T14:48:26.247Z,5.43
2022-08-16T14:50:55.304Z,6.47
2022-08-16T14:53:23.399Z,6.25
2022-08-16T14:55:53.198Z,5.57
2022-08-16T14:58:34.719Z,6.30
2022-08-16T15:01:04.132Z,5.60
2022-08-16T15:03:32.066Z,5.20
2022-08-16T15:06:01.806Z,5.97
2022-08-16T15:08:36.216Z,5.43
2022-08-16T15:11:04.797Z,5.90
2022-08-16T15:13:31.946Z,6.03
2022-08-16T15:16:02.797Z,5.32
2022-08-16T15:18:32.414Z,6.57
2022-08-16T15:21:02.630Z,6.20
2022-08-16T15:23:34.007Z,5.47
2022-08-16T15:26:03.907Z,6.00
2022-08-16T15:28:33.725Z,5.70
2022-08-16T15:31:03.749Z,5.70
2022-08-16T15:33:34.563Z,5.30
2022-08-16T15:36:02.967Z,6.40
2022-08-16T15:38:57.736Z,6.10
2022-08-16T15:42:01.234Z,5.60
2022-08-16T15:44:44.684Z,7.25
2022-08-16T15:50:19.360Z,7.00
2022-08-16T15:52:46.699Z,7.10
2022-08-16T15:55:34.615Z,7.03
2022-08-16T16:00:51.945Z,5.20
2022-08-16T16:03:23.522Z,6.53
2022-08-16T16:05:54.195Z,5.30
2022-08-16T16:08:25.391Z,5.68
2022-08-16T16:10:55.381Z,5.43
2022-08-16T16:13:23.598Z,5.38
2022-08-16T16:16:00.814Z,5.60
2022-08-16T16:18:30.336Z,5.53
2022-08-16T16:21:03.643Z,6.13
2022-08-16T16:23:36.214Z,6.07
2022-08-16T16:26:16.890Z,5.55
2022-08-16T16:29:08.393Z,5.72
2022-08-16T16:31:37.366Z,6.00
2022-08-16T16:34:07.258Z,5.70
2022-08-16T16:36:37.442Z,6.22
2022-08-16T16:39:07.874Z,5.70
2022-08-16T16:41:37.364Z,6.07
2022-08-16T16:44:04.971Z,6.05
2022-08-16T16:46:42.752Z,5.80
2022-08-16T16:49:12.328Z,6.28
2022-08-16T16:51:44.468Z,6.18
2022-08-16T16:54:13.347Z,7.05
2022-08-16T16:56:50.335Z,6.03
2022-08-16T16:59:20.241Z,6.95
2022-08-16T17:01:57.406Z,5.82
2022-08-16T17:04:32.459Z,5.88
2022-08-16T17:07:02.060Z,5.68
2022-08-16T17:09:29.763Z,5.82
2022-08-16T17:11:58.413Z,6.30
2022-08-16T17:14:33.161Z,6.57
2022-08-16T17:17:08.715Z,6.60
2022-08-16T17:19:40.344Z,5.53
2022-08-16T17:22:32.961Z,6.55
2022-08-16T17:25:00.576Z,6.63
2022-08-16T17:27:33.791Z,7.22
2022-08-16T17:30:15.728Z,6.60
2022-08-16T17:32:48.705Z,7.90
2022-08-16T17:35:21.644Z,12.20
2022-08-16T17:37:51.613Z,8.13
2022-08-16T17:40:47.173Z,8.20
2022-08-16T17:43:13.498Z,6.50
2022-08-16T17:45:42.463Z,6.72
2022-08-16T17:48:09.723Z,5.88
2022-08-16T17:50:37.025Z,6.18
2022-08-16T17:53:05.583Z,6.82
2022-08-16T17:55:36.138Z,5.90
2022-08-16T17:58:09.618Z,6.30
2022-08-16T18:00:52.294Z,5.88
2022-08-16T18:04:06.404Z,5.70
2022-08-16T18:06:18.713Z,5.90
2022-08-16T18:08:48.602Z,5.88
2022-08-16T18:11:18.496Z,5.70
2022-08-16T18:13:47.074Z,5.28
2022-08-16T18:16:16.714Z,5.57
2022-08-16T18:18:46.977Z,5.47
2022-08-16T18:21:33.919Z,5.65
2022-08-16T18:24:00.970Z,5.22
2022-08-16T18:26:28.260Z,5.03
2022-08-16T18:28:55.794Z,5.70
2022-08-16T18:31:22.943Z,6.45
2022-08-16T18:33:54.640Z,5.78
2022-08-16T18:36:24.086Z,5.80
2022-08-16T18:38:52.414Z,5.50
2022-08-16T18:41:21.509Z,5.88
2022-08-16T18:44:24.040Z,5.82
2022-08-16T18:46:35.917Z,5.55
2022-08-16T18:49:03.259Z,5.82
2022-08-16T18:51:31.840Z,6.07
2022-08-16T18:53:59.177Z,5.70
2022-08-16T18:56:57.075Z,5.90
2022-08-16T18:59:13.489Z,5.75
2022-08-16T19:01:40.723Z,5.45
2022-08-16T19:04:57.186Z,6.05
2022-08-16T19:06:55.360Z,5.88
2022-08-16T19:09:22.436Z,5.15
2022-08-16T19:11:49.478Z,5.97
2022-08-16T19:14:16.647Z,5.35
2022-08-16T19:16:44.994Z,5.70
2022-08-16T19:19:12.052Z,5.80
2022-08-16T19:21:39.780Z,5.45
2022-08-16T19:24:07.031Z,5.43
2022-08-16T19:26:45.670Z,5.05
2022-08-16T19:29:13.526Z,5.45
2022-08-16T19:31:40.964Z,5.88
2022-08-16T19:34:08.807Z,5.88
2022-08-16T19:36:38.443Z,5.53
2022-08-16T19:39:15.712Z,5.95
2022-08-16T19:41:46.462Z,5.68
2022-08-16T19:44:21.059Z,5.53
2022-08-16T19:46:49.289Z,6.45
2022-08-16T19:49:17.172Z,5.28
2022-08-16T19:51:48.281Z,5.15
2022-08-16T19:54:15.393Z,5.13
2022-08-16T19:56:42.410Z,5.35
2022-08-16T19:59:19.372Z,6.07
2022-08-16T20:01:51.197Z,5.75
2022-08-16T20:04:18.732Z,5.88
2022-08-16T20:06:46.935Z,5.60
2022-08-16T20:09:18.003Z,5.18
2022-08-16T20:11:46.345Z,6.95
2022-08-16T20:14:25.392Z,5.55
2022-08-16T20:16:55.186Z,6.68
2022-08-16T20:19:22.212Z,6.03
2022-08-16T20:21:49.991Z,5.60
2022-08-16T20:24:33.608Z,5.35
2022-08-16T20:27:02.759Z,6.60
2022-08-16T20:29:29.739Z,7.28
2022-08-16T20:31:56.913Z,6.60
2022-08-16T20:34:23.997Z,6.88
2022-08-16T20:36:52.773Z,7.10
2022-08-16T20:39:20.804Z,6.72
2022-08-16T20:44:31.852Z,6.70
2022-08-16T20:46:59.037Z,6.25
2022-08-16T20:49:26.063Z,9.02
2022-08-16T20:57:10.643Z,6.97
2022-08-16T20:59:40.075Z,7.55
2022-08-16T21:03:38.204Z,6.80
2022-08-16T21:06:06.088Z,7.55
2022-08-16T21:08:51.619Z,7.10
2022-08-16T21:11:21.691Z,6.68
2022-08-16T21:13:49.007Z,8.15
2022-08-16T21:16:17.330Z,7.03
2022-08-16T21:18:44.365Z,6.80
2022-08-16T21:26:39.030Z,6.13
2022-08-16T21:29:07.845Z,6.00
2022-08-16T21:31:41.336Z,6.72
2022-08-16T21:34:08.941Z,6.15
2022-08-16T21:36:36.641Z,6.65
2022-08-16T21:39:07.429Z,6.55
2022-08-16T22:01:10.523Z,6.65
2022-08-16T22:03:37.962Z,6.27
2022-08-16T22:06:12.532Z,6.65
2022-08-16T22:08:50.261Z,6.00
2022-08-16T22:11:22.962Z,6.82
2022-08-16T22:13:57.408Z,6.43
2022-08-16T22:16:39.728Z,7.22
2022-08-16T22:19:06.790Z,6.63
2022-08-16T22:21:34.767Z,6.82
2022-08-16T22:24:02.031Z,7.32
2022-08-16T22:26:37.600Z,6.72
2022-08-16T22:29:10.628Z,6.40
2022-08-16T22:31:39.801Z,7.35
2022-08-16T22:34:08.015Z,6.85
2022-08-16T22:36:35.808Z,6.60
2022-08-16T22:39:07.047Z,7.20
2022-08-16T22:41:35.516Z,7.35
2022-08-16T22:44:04.650Z,6.82
2022-08-16T22:46:32.688Z,7.72
2022-08-16T22:48:59.874Z,6.75
2022-08-16T22:51:28.164Z,6.90
2022-08-16T22:53:56.951Z,6.93
2022-08-16T22:56:25.300Z,7.40
2022-08-16T22:58:52.839Z,7.10
2022-08-16T23:01:22.377Z,7.30
2022-08-16T23:03:50.216Z,7.60
2022-08-16T23:06:18.248Z,7.45
2022-08-16T23:08:45.345Z,6.78
2022-08-16T23:11:19.689Z,7.50
2022-08-16T23:13:53.102Z,7.82
2022-08-16T23:16:25.028Z,7.22
2022-08-16T23:19:01.225Z,7.50
2022-08-16T23:21:28.398Z,7.38
2022-08-16T23:23:55.626Z,7.18
2022-08-16T23:26:44.637Z,7.70
2022-08-16T23:29:15.655Z,7.03
2022-08-16T23:31:57.421Z,7.53
2022-08-16T23:34:27.299Z,7.25
2022-08-16T23:41:57.391Z,7.47
2022-08-16T23:44:58.585Z,7.43
2022-08-16T23:47:11.937Z,7.97
2022-08-16T23:49:58.371Z,6.78
2022-08-16T23:52:39.430Z,7.63
2022-08-16T23:55:13.673Z,7.55
2022-08-16T23:57:43.664Z,7.03
